Time;durP1;ratioP1;P1;durP2;ratioP2;P2;SDS_P1;SDS_P2;PMS_P1;PMS_P2;Temp;Humidity;BMP_temperature;BMP_pressure;BME280_temperature;BME280_humidity;BME280_pressure;Samples;Min_cycle;Max_cycle;Signal;HPM_P1;HPM_P2
2022/12/09 00:01:22;;;;;;;52.33;21.88;;;;;;;1.31;100.00;100689.00;5008418;28;20536;-77
2022/12/09 00:03:48;;;;;;;57.22;24.65;;;;;;;1.28;100.00;100691.53;5010546;28;20483;-77
2022/12/09 00:06:17;;;;;;;54.65;23.80;;;;;;;1.30;100.00;100698.34;4993026;28;20030;-77
2022/12/09 00:08:43;;;;;;;56.40;23.27;;;;;;;1.35;100.00;100698.41;5010620;28;20064;-75
2022/12/09 00:11:09;;;;;;;53.05;22.25;;;;;;;1.35;100.00;100698.41;5014789;28;20038;-74
2022/12/09 00:13:34;;;;;;;57.83;23.60;;;;;;;1.37;100.00;100694.16;5016904;28;20257;-74
2022/12/09 00:16:04;;;;;;;48.70;22.80;;;;;;;1.39;100.00;100695.91;5010103;28;20041;-74
2022/12/09 00:18:29;;;;;;;57.67;23.85;;;;;;;1.40;100.00;100692.53;5009388;28;20025;-74
2022/12/09 00:20:55;;;;;;;58.47;24.27;;;;;;;1.41;100.00;100680.59;5010642;28;20026;-74
2022/12/09 00:23:20;;;;;;;54.88;23.90;;;;;;;1.43;100.00;100684.88;5008350;28;20396;-74
2022/12/09 00:25:46;;;;;;;56.22;24.05;;;;;;;1.42;100.00;100684.88;5009825;28;20105;-74
2022/12/09 00:28:11;;;;;;;59.78;25.35;;;;;;;1.41;100.00;100689.13;5015525;28;20026;-75
2022/12/09 00:30:36;;;;;;;56.38;24.85;;;;;;;1.42;100.00;100685.75;5010504;28;20037;-74
2022/12/09 00:33:02;;;;;;;58.40;24.08;;;;;;;1.42;100.00;100685.75;5008852;28;20121;-74
2022/12/09 00:35:27;;;;;;;62.63;25.48;;;;;;;1.43;100.00;100684.88;5009035;28;20056;-74
2022/12/09 00:37:52;;;;;;;57.45;24.05;;;;;;;1.48;100.00;100684.94;5007230;28;20462;-74
2022/12/09 00:40:18;;;;;;;59.00;24.80;;;;;;;1.47;100.00;100694.31;5008996;28;20030;-74
2022/12/09 00:42:43;;;;;;;63.88;25.10;;;;;;;1.51;100.00;100692.63;5016139;28;20025;-74
2022/12/09 00:45:09;;;;;;;64.88;26.23;;;;;;;1.50;100.00;100691.75;5019694;28;20076;-74
2022/12/09 00:47:35;;;;;;;59.60;25.27;;;;;;;1.49;100.00;100694.31;5009499;28;20029;-74
2022/12/09 00:50:00;;;;;;;63.42;25.23;;;;;;;1.47;100.00;100691.75;4992405;28;20428;-74
2022/12/09 00:52:25;;;;;;;59.58;25.27;;;;;;;1.49;100.00;100696.88;5008556;28;20021;-74
2022/12/09 00:54:51;;;;;;;64.30;25.02;;;;;;;1.45;100.00;100695.09;5008946;28;20062;-74
2022/12/09 00:57:16;;;;;;;55.90;23.83;;;;;;;1.50;100.00;100693.47;5007446;28;20030;-74
2022/12/09 00:59:41;;;;;;;63.58;25.80;;;;;;;1.50;100.00;100680.72;5013098;28;20072;-74
2022/12/09 01:02:07;;;;;;;67.63;26.80;;;;;;;1.50;100.00;100678.16;5011232;28;20026;-74
2022/12/09 01:04:32;;;;;;;67.80;26.70;;;;;;;1.50;100.00;100680.72;5009636;28;20040;-74
2022/12/09 01:06:58;;;;;;;66.60;26.55;;;;;;;1.45;100.00;100677.22;5009007;28;20132;-74
2022/12/09 01:09:23;;;;;;;61.63;24.48;;;;;;;1.47;100.00;100683.22;5008216;28;20212;-77
2022/12/09 01:11:48;;;;;;;66.47;26.35;;;;;;;1.48;100.00;100687.50;5019709;28;20397;-77
2022/12/09 01:14:14;;;;;;;65.03;27.25;;;;;;;1.45;100.00;100688.31;5011419;28;20056;-77
2022/12/09 01:16:39;;;;;;;63.08;26.25;;;;;;;1.48;100.00;100684.94;5010293;28;20025;-77
2022/12/09 01:19:07;;;;;;;69.07;26.75;;;;;;;1.49;100.00;100691.78;5006865;28;20395;-77
2022/12/09 01:21:34;;;;;;;66.82;25.70;;;;;;;1.49;100.00;100687.53;5000466;28;20042;-77
2022/12/09 01:24:00;;;;;;;70.15;26.73;;;;;;;1.50;100.00;100688.38;5009870;28;20443;-77
2022/12/09 01:26:26;;;;;;;68.57;27.27;;;;;;;1.51;100.00;100690.91;5017063;28;20303;-77
2022/12/09 01:28:53;;;;;;;71.13;27.45;;;;;;;1.52;100.00;100691.78;5011880;28;20158;-77
2022/12/09 01:31:21;;;;;;;67.32;26.58;;;;;;;1.53;100.00;100686.69;5012644;28;20033;-77
2022/12/09 01:33:47;;;;;;;70.57;28.17;;;;;;;1.55;100.00;100689.28;5012536;28;20029;-77
2022/12/09 01:36:15;;;;;;;74.25;27.92;;;;;;;1.54;100.00;100690.09;5012687;28;20071;-77
2022/12/09 01:38:41;;;;;;;73.03;27.85;;;;;;;1.55;100.00;100695.25;5012388;28;20026;-77
2022/12/09 01:41:06;;;;;;;72.28;27.65;;;;;;;1.56;100.00;100703.75;5020291;28;20108;-77
2022/12/09 01:43:31;;;;;;;71.55;28.02;;;;;;;1.57;100.00;100698.66;5016828;28;20075;-77
2022/12/09 01:45:57;;;;;;;76.13;28.15;;;;;;;1.57;100.00;100693.53;5013296;28;20030;-77
2022/12/09 01:48:26;;;;;;;75.95;28.55;;;;;;;1.57;100.00;100701.19;5012275;28;20500;-77
2022/12/09 01:50:56;;;;;;;75.25;27.85;;;;;;;1.57;100.00;100696.09;5012778;28;20461;-77
2022/12/09 01:53:26;;;;;;;73.68;27.52;;;;;;;1.58;100.00;100708.03;5012874;28;20030;-77
2022/12/09 01:55:54;;;;;;;74.00;28.45;;;;;;;1.59;100.00;100703.78;5020060;28;20029;-77
2022/12/09 01:58:20;;;;;;;75.55;28.35;;;;;;;1.58;100.00;100695.25;5016300;28;20058;-77
2022/12/09 02:00:46;;;;;;;76.90;29.00;;;;;;;1.60;100.00;100700.38;4995020;28;20109;-77
2022/12/09 02:03:12;;;;;;;84.07;30.10;;;;;;;1.59;100.00;100696.97;4994758;28;20030;-77
2022/12/09 02:05:37;;;;;;;78.90;29.02;;;;;;;1.59;100.00;100696.97;5012168;28;20029;-77
2022/12/09 02:08:06;;;;;;;75.82;28.17;;;;;;;1.61;100.00;100699.53;5011796;28;20026;-77
2022/12/09 02:10:36;;;;;;;79.93;28.58;;;;;;;1.62;100.00;100695.31;5010097;28;20412;-77
2022/12/09 02:13:26;;;;;;;78.57;28.90;;;;;;;1.64;100.00;100698.72;5011678;28;20029;-77
2022/12/09 02:15:56;;;;;;;78.25;28.38;;;;;;;1.64;100.00;100694.44;5012506;28;20034;-75
2022/12/09 02:18:21;;;;;;;78.05;28.65;;;;;;;1.66;100.00;100695.34;5010701;28;20018;-74
2022/12/09 02:21:10;;;;;;;78.45;28.55;;;;;;;1.69;100.00;100700.50;5012783;28;20080;-73
2022/12/09 02:23:41;;;;;;;74.65;27.95;;;;;;;1.68;100.00;100693.66;5011466;28;20104;-73
2022/12/09 02:26:21;;;;;;;79.68;28.55;;;;;;;1.71;100.00;100693.69;5012677;28;20055;-74
2022/12/09 02:29:21;;;;;;;83.25;30.08;;;;;;;1.71;100.00;100692.81;5003519;28;20050;-73
2022/12/09 02:32:35;;;;;;;77.78;28.58;;;;;;;1.77;100.00;100698.00;4988645;28;20510;-73
2022/12/09 02:35:17;;;;;;;91.97;30.70;;;;;;;1.73;100.00;100696.25;4895353;29;20040;-73
2022/12/09 02:37:52;;;;;;;82.15;28.52;;;;;;;1.68;100.00;100698.78;4900628;29;20016;-73
2022/12/09 02:40:34;;;;;;;88.85;29.00;;;;;;;1.69;100.00;100697.06;4976490;28;20046;-74
2022/12/09 02:43:04;;;;;;;81.10;29.00;;;;;;;1.67;100.00;100703.84;5011927;28;20034;-73
2022/12/09 02:45:31;;;;;;;80.20;29.27;;;;;;;1.64;100.00;100698.72;5012054;28;20539;-74
2022/12/09 02:47:59;;;;;;;80.60;29.17;;;;;;;1.64;100.00;100693.63;4993391;28;20034;-73
2022/12/09 02:50:29;;;;;;;85.90;31.23;;;;;;;1.61;100.00;100688.47;5012110;28;20462;-74
2022/12/09 02:52:59;;;;;;;83.82;30.55;;;;;;;1.60;100.00;100692.72;5009603;28;20060;-73
2022/12/09 02:55:26;;;;;;;88.30;32.28;;;;;;;1.57;100.00;100690.97;5015008;28;20034;-73
2022/12/09 02:57:57;;;;;;;85.97;31.02;;;;;;;1.57;100.00;100692.69;5010953;28;20030;-74
2022/12/09 03:00:23;;;;;;;95.70;30.42;;;;;;;1.55;100.00;100676.50;5010992;28;20033;-73
2022/12/09 03:02:53;;;;;;;87.32;31.05;;;;;;;1.53;100.00;100678.19;5009187;28;20030;-73
2022/12/09 03:05:24;;;;;;;90.85;31.02;;;;;;;1.53;100.00;100676.47;5011499;28;20563;-73
2022/12/09 03:08:05;;;;;;;89.18;29.98;;;;;;;1.55;100.00;100679.91;4992286;28;20060;-73
2022/12/09 03:10:47;;;;;;;92.63;30.50;;;;;;;1.56;100.00;100686.75;5011762;28;20049;-73
2022/12/09 03:13:23;;;;;;;96.25;30.60;;;;;;;1.62;100.00;100678.28;4993566;28;20251;-73
2022/12/09 03:15:53;;;;;;;90.13;29.20;;;;;;;1.65;100.00;100682.53;4993245;28;20057;-73
2022/12/09 03:18:19;;;;;;;88.20;30.92;;;;;;;1.64;100.00;100666.34;5015449;28;20121;-73
2022/12/09 03:20:49;;;;;;;90.50;30.00;;;;;;;1.68;100.00;100673.22;4993929;28;20077;-73
2022/12/09 03:23:16;;;;;;;91.47;31.08;;;;;;;1.70;100.00;100673.25;5010402;28;20038;-74
2022/12/09 03:25:45;;;;;;;98.15;31.83;;;;;;;1.70;100.00;100674.09;5012453;28;20084;-73
2022/12/09 03:28:17;;;;;;;94.80;30.17;;;;;;;1.71;100.00;100657.91;5010040;28;20104;-73
2022/12/09 03:30:44;;;;;;;98.18;33.05;;;;;;;1.71;100.00;100662.16;5010261;28;20042;-73
2022/12/09 03:33:13;;;;;;;92.20;30.80;;;;;;;1.74;100.00;100667.31;5010359;28;20424;-73
2022/12/09 03:35:42;;;;;;;92.57;30.58;;;;;;;1.68;100.00;100651.94;5011145;28;20488;-73
2022/12/09 03:38:11;;;;;;;96.10;31.38;;;;;;;1.73;100.00;100663.03;5008677;28;20044;-74
2022/12/09 03:40:38;;;;;;;99.95;32.30;;;;;;;1.69;100.00;100662.16;5010130;28;20530;-74
2022/12/09 03:43:16;;;;;;;93.03;31.23;;;;;;;1.68;100.00;100657.03;5010910;28;20159;-74
2022/12/09 03:45:41;;;;;;;94.05;31.15;;;;;;;1.69;100.00;100651.09;5011248;28;20034;-74
2022/12/09 03:48:08;;;;;;;86.07;29.75;;;;;;;1.67;100.00;100656.19;5009716;28;20067;-74
2022/12/09 03:50:43;;;;;;;84.18;30.13;;;;;;;1.70;100.00;100657.91;5010292;28;20068;-74
2022/12/09 03:53:13;;;;;;;82.20;30.02;;;;;;;1.70;100.00;100650.25;5010221;28;20053;-74
2022/12/09 03:55:43;;;;;;;92.60;31.33;;;;;;;1.69;100.00;100659.63;4998678;28;20030;-74
2022/12/09 03:58:11;;;;;;;96.90;32.10;;;;;;;1.66;100.00;100648.50;5014433;28;20025;-74
2022/12/09 04:00:38;;;;;;;105.88;32.58;;;;;;;1.68;100.00;100649.38;4993161;28;20029;-74
2022/12/09 04:03:05;;;;;;;97.07;30.90;;;;;;;1.68;100.00;100652.78;5010521;28;20112;-74
2022/12/09 04:05:31;;;;;;;96.55;31.30;;;;;;;1.68;100.00;100660.44;5010060;28;20029;-74
2022/12/09 04:07:56;;;;;;;101.45;32.60;;;;;;;1.66;100.00;100654.47;5008421;28;20030;-74
2022/12/09 04:10:21;;;;;;;102.88;32.40;;;;;;;1.67;100.00;100660.44;5017684;28;21095;-74
2022/12/09 04:12:47;;;;;;;96.13;33.22;;;;;;;1.65;100.00;100646.78;5009972;28;20071;-74
2022/12/09 04:15:12;;;;;;;101.60;32.88;;;;;;;1.65;100.00;100646.78;5010198;28;20034;-74
2022/12/09 04:17:37;;;;;;;101.07;32.97;;;;;;;1.65;100.00;100639.13;5010769;28;20091;-74
2022/12/09 04:20:04;;;;;;;95.60;32.40;;;;;;;1.66;100.00;100649.34;5009896;28;20256;-76
2022/12/09 04:22:29;;;;;;;97.53;31.63;;;;;;;1.65;100.00;100651.88;5009993;28;20025;-76
2022/12/09 04:24:54;;;;;;;104.35;33.38;;;;;;;1.63;100.00;100651.03;5009520;28;20056;-76
2022/12/09 04:27:20;;;;;;;100.45;31.08;;;;;;;1.64;100.00;100651.03;5009805;28;20025;-76
2022/12/09 04:29:45;;;;;;;95.00;31.60;;;;;;;1.65;100.00;100644.22;5009391;28;20053;-76
2022/12/09 04:32:11;;;;;;;96.07;32.13;;;;;;;1.64;100.00;100648.47;5010564;28;20136;-76
2022/12/09 04:34:36;;;;;;;90.28;31.25;;;;;;;1.62;100.00;100646.78;4984743;28;20472;-76
2022/12/09 04:37:01;;;;;;;85.55;30.92;;;;;;;1.60;100.00;100649.31;5008498;28;20469;-76
2022/12/09 04:39:27;;;;;;;90.13;31.45;;;;;;;1.58;100.00;100649.28;5009159;28;20029;-76
2022/12/09 04:41:52;;;;;;;89.70;30.73;;;;;;;1.59;100.00;100643.34;5009698;28;20715;-76
2022/12/09 04:44:17;;;;;;;96.53;31.80;;;;;;;1.58;100.00;100644.16;5010182;28;20042;-76
2022/12/09 04:46:43;;;;;;;94.82;32.13;;;;;;;1.56;100.00;100643.31;5009668;28;20088;-76
2022/12/09 04:49:08;;;;;;;89.43;30.30;;;;;;;1.53;100.00;100635.63;5007699;28;20037;-76
2022/12/09 04:51:33;;;;;;;88.65;29.63;;;;;;;1.54;100.00;100641.59;5008627;28;20491;-76
2022/12/09 04:53:59;;;;;;;88.00;30.13;;;;;;;1.55;100.00;100641.59;5010120;28;20675;-76
2022/12/09 04:56:24;;;;;;;91.60;30.73;;;;;;;1.56;100.00;100650.13;5008769;28;20097;-74
2022/12/09 04:58:50;;;;;;;88.47;30.90;;;;;;;1.55;100.00;100641.59;5008234;28;20117;-74
2022/12/09 05:01:18;;;;;;;95.40;30.15;;;;;;;1.55;100.00;100651.81;5009407;28;20481;-74
2022/12/09 05:03:50;;;;;;;97.95;31.15;;;;;;;1.58;100.00;100650.97;5022643;28;20042;-74
2022/12/09 05:06:17;;;;;;;93.85;31.17;;;;;;;1.58;100.00;100654.38;5012387;28;20076;-74
2022/12/09 05:08:43;;;;;;;97.20;31.80;;;;;;;1.55;100.00;100656.94;5012096;28;20076;-74
2022/12/09 05:11:09;;;;;;;96.80;30.80;;;;;;;1.50;100.00;100650.91;5012939;28;20038;-74
2022/12/09 05:13:34;;;;;;;98.70;31.75;;;;;;;1.49;100.00;100649.22;5009803;28;20042;-74
2022/12/09 05:16:01;;;;;;;96.95;30.65;;;;;;;1.51;100.00;100646.66;5013456;28;20034;-74
2022/12/09 05:18:27;;;;;;;102.03;30.58;;;;;;;1.52;100.00;100649.22;5022446;28;20112;-74
2022/12/09 05:20:53;;;;;;;96.18;31.35;;;;;;;1.50;100.00;100652.63;5020260;28;20045;-74
2022/12/09 05:23:18;;;;;;;95.85;31.67;;;;;;;1.50;100.00;100653.44;5012833;28;20057;-74
2022/12/09 05:25:44;;;;;;;94.32;29.98;;;;;;;1.49;100.00;100649.22;4994770;28;20060;-74
2022/12/09 05:28:09;;;;;;;89.72;29.00;;;;;;;1.47;100.00;100645.78;5011747;28;20026;-74
2022/12/09 05:30:35;;;;;;;90.03;30.17;;;;;;;1.50;100.00;100647.50;5012819;28;20032;-74
2022/12/09 05:33:01;;;;;;;97.22;30.70;;;;;;;1.47;100.00;100645.78;5011272;28;20416;-74
2022/12/09 05:35:26;;;;;;;98.75;31.25;;;;;;;1.49;100.00;100648.34;5010560;28;20484;-74
2022/12/09 05:37:51;;;;;;;103.57;31.52;;;;;;;1.50;100.00;100647.50;5007126;28;20036;-74
2022/12/09 05:40:17;;;;;;;99.53;32.58;;;;;;;1.48;100.00;100649.19;4995209;28;20014;-74
2022/12/09 05:42:42;;;;;;;96.35;31.15;;;;;;;1.44;100.00;100643.19;5019709;28;20038;-74
2022/12/09 05:45:08;;;;;;;100.60;30.85;;;;;;;1.46;100.00;100649.16;5012524;28;20500;-74
2022/12/09 05:47:33;;;;;;;103.40;31.55;;;;;;;1.43;100.00;100649.13;5013283;28;20120;-74
2022/12/09 05:49:58;;;;;;;94.03;31.00;;;;;;;1.48;100.00;100646.63;5011809;28;20018;-74
2022/12/09 05:52:23;;;;;;;100.45;32.50;;;;;;;1.47;100.00;100652.56;5013053;28;20029;-74
2022/12/09 05:54:49;;;;;;;105.18;32.30;;;;;;;1.41;100.00;100640.63;5012894;28;20202;-74
2022/12/09 05:57:14;;;;;;;94.65;29.67;;;;;;;1.39;100.00;100644.84;5010955;28;20036;-74
2022/12/09 05:59:39;;;;;;;99.10;31.60;;;;;;;1.37;100.00;100633.75;5009890;28;20026;-76
2022/12/09 06:02:05;;;;;;;100.55;28.98;;;;;;;1.31;100.00;100631.13;5011975;28;20026;-77
2022/12/09 06:04:30;;;;;;;106.53;30.05;;;;;;;1.28;100.00;100636.22;5011480;28;20029;-76
2022/12/09 06:06:55;;;;;;;107.38;31.42;;;;;;;1.19;100.00;100631.00;5011347;28;20037;-76
2022/12/09 06:09:21;;;;;;;93.13;30.20;;;;;;;1.14;100.00;100635.22;5010839;28;20105;-76
2022/12/09 06:11:46;;;;;;;97.10;28.00;;;;;;;1.08;100.00;100636.00;5012954;28;20093;-76
2022/12/09 06:14:11;;;;;;;89.50;29.13;;;;;;;1.07;100.00;100643.66;5009587;28;20488;-78
2022/12/09 06:16:37;;;;;;;87.60;28.27;;;;;;;1.03;100.00;100641.88;5005294;28;20384;-76
2022/12/09 06:19:03;;;;;;;103.00;29.20;;;;;;;0.99;100.00;100643.56;5006888;28;20037;-77
2022/12/09 06:21:29;;;;;;;91.57;27.75;;;;;;;1.00;100.00;100646.97;5009557;28;20105;-76
2022/12/09 06:23:54;;;;;;;93.07;26.45;;;;;;;1.01;100.00;100641.03;4986749;28;20112;-77
2022/12/09 06:26:25;;;;;;;97.93;28.77;;;;;;;1.06;100.00;100647.88;5007471;28;20477;-77
2022/12/09 06:28:52;;;;;;;94.10;28.55;;;;;;;1.10;100.00;100649.63;5007558;28;20496;-74
2022/12/09 06:31:18;;;;;;;95.03;29.20;;;;;;;1.09;100.00;100652.19;5010995;28;20044;-73
2022/12/09 06:33:44;;;;;;;95.53;27.92;;;;;;;1.10;100.00;100653.88;5008939;28;20030;-73
2022/12/09 06:36:09;;;;;;;95.82;27.92;;;;;;;1.11;100.00;100648.78;5012151;28;20392;-73
2022/12/09 06:38:35;;;;;;;86.88;26.20;;;;;;;1.17;100.00;100658.19;5012034;28;20097;-73
2022/12/09 06:41:08;;;;;;;87.72;27.98;;;;;;;1.15;100.00;100642.91;5012034;28;20152;-73
2022/12/09 06:43:34;;;;;;;88.53;28.95;;;;;;;1.16;100.00;100646.31;5010831;28;20095;-73
2022/12/09 06:45:59;;;;;;;88.55;27.15;;;;;;;1.15;100.00;100644.59;5009682;28;20038;-73
2022/12/09 06:48:24;;;;;;;79.90;26.55;;;;;;;1.17;100.00;100650.53;5006944;28;20026;-74
2022/12/09 06:50:50;;;;;;;81.57;26.25;;;;;;;1.17;100.00;100646.31;5006151;28;20081;-73
2022/12/09 06:53:16;;;;;;;81.70;26.85;;;;;;;1.14;100.00;100647.97;5003178;28;20059;-73
2022/12/09 06:55:41;;;;;;;74.85;25.95;;;;;;;1.10;100.00;100651.31;5005042;28;20045;-73
2022/12/09 06:58:07;;;;;;;79.25;25.80;;;;;;;1.03;100.00;100645.28;5006072;28;20072;-73
2022/12/09 07:00:32;;;;;;;80.90;26.85;;;;;;;0.98;100.00;100653.72;5005132;28;20117;-76
2022/12/09 07:02:57;;;;;;;81.60;26.30;;;;;;;0.88;100.00;100657.88;5004903;28;20112;-76
2022/12/09 07:05:24;;;;;;;78.03;26.13;;;;;;;0.84;100.00;100657.81;5004361;28;20484;-76
2022/12/09 07:07:50;;;;;;;77.93;27.08;;;;;;;0.73;100.00;100645.78;5006115;28;20493;-76
2022/12/09 07:10:16;;;;;;;77.25;26.40;;;;;;;0.68;100.00;100654.22;5003282;28;20158;-76
2022/12/09 07:12:41;;;;;;;78.32;26.25;;;;;;;0.69;100.00;100661.00;5007529;28;20034;-75
2022/12/09 07:15:08;;;;;;;78.40;27.02;;;;;;;0.73;100.00;100652.59;5006616;28;20503;-76
2022/12/09 07:17:33;;;;;;;79.85;27.38;;;;;;;0.74;100.00;100651.75;5010986;28;20092;-76
2022/12/09 07:19:58;;;;;;;78.47;26.77;;;;;;;0.76;100.00;100653.47;5010387;28;20022;-76
2022/12/09 07:22:23;;;;;;;79.30;27.35;;;;;;;0.78;100.00;100656.91;5011282;28;20080;-76
2022/12/09 07:24:49;;;;;;;81.85;28.08;;;;;;;0.76;100.00;100661.13;5008747;28;20360;-76
2022/12/09 07:27:15;;;;;;;76.28;27.48;;;;;;;0.77;100.00;100660.28;5009742;28;20030;-76
2022/12/09 07:29:40;;;;;;;85.05;28.75;;;;;;;0.79;100.00;100667.97;5008693;28;20060;-73
2022/12/09 07:32:11;;;;;;;79.30;27.27;;;;;;;0.84;100.00;100673.97;5009389;28;20384;-73
2022/12/09 07:34:37;;;;;;;85.93;28.00;;;;;;;0.84;100.00;100666.31;5008621;28;20018;-73
2022/12/09 07:37:02;;;;;;;84.35;28.73;;;;;;;0.83;100.00;100669.69;4992122;28;20036;-73
2022/12/09 07:39:28;;;;;;;79.40;27.92;;;;;;;0.74;100.00;100670.47;5009490;28;20021;-73
2022/12/09 07:41:57;;;;;;;68.43;25.90;;;;;;;0.60;100.00;100666.88;5010484;28;20033;-73
2022/12/09 07:44:26;;;;;;;79.25;27.02;;;;;;;0.48;100.00;100686.25;5008185;28;20026;-73
2022/12/09 07:46:52;;;;;;;80.55;27.90;;;;;;;0.40;100.00;100681.03;5006382;28;20527;-73
2022/12/09 07:49:18;;;;;;;78.18;26.15;;;;;;;0.35;100.00;100680.09;5009479;28;20025;-74
2022/12/09 07:51:43;;;;;;;77.70;27.40;;;;;;;0.33;100.00;100680.09;5009601;28;20029;-73
2022/12/09 07:54:13;;;;;;;81.35;28.42;;;;;;;0.32;100.00;100685.16;5007251;28;20033;-73
2022/12/09 07:56:39;;;;;;;77.88;26.02;;;;;;;0.35;100.00;100691.13;5007544;28;20507;-74
2022/12/09 07:59:10;;;;;;;78.78;27.42;;;;;;;0.38;100.00;100687.78;5010145;28;20034;-73
2022/12/09 08:01:37;;;;;;;85.55;25.75;;;;;;;0.43;100.00;100682.75;5008802;28;20033;-74
2022/12/09 08:04:04;;;;;;;77.97;26.08;;;;;;;0.47;100.00;100690.47;5009602;28;20025;-73
2022/12/09 08:06:30;;;;;;;85.47;27.65;;;;;;;0.52;100.00;100691.41;5007878;28;20030;-73
2022/12/09 08:09:00;;;;;;;79.05;26.90;;;;;;;0.56;100.00;100692.28;5006824;28;20036;-74
2022/12/09 08:11:27;;;;;;;82.07;29.02;;;;;;;0.57;100.00;100683.81;5006305;28;20042;-74
2022/12/09 08:13:56;;;;;;;82.00;26.75;;;;;;;0.58;100.00;100688.94;5008572;28;20025;-73
2022/12/09 08:16:22;;;;;;;82.95;28.08;;;;;;;0.61;100.00;100693.22;5004467;28;20080;-73
2022/12/09 08:18:48;;;;;;;79.70;26.67;;;;;;;0.61;100.00;100689.00;5005578;28;20029;-74
2022/12/09 08:21:15;;;;;;;79.47;27.00;;;;;;;0.61;100.00;100689.00;4983283;28;20060;-73
2022/12/09 08:23:41;;;;;;;74.93;26.40;;;;;;;0.61;100.00;100693.22;5007003;28;20219;-74
2022/12/09 08:26:07;;;;;;;85.20;26.67;;;;;;;0.60;100.00;100691.50;5005670;28;20269;-74
2022/12/09 08:28:32;;;;;;;78.65;26.83;;;;;;;0.60;100.00;100696.63;5008613;28;20040;-76
2022/12/09 08:30:58;;;;;;;82.53;26.73;;;;;;;0.55;100.00;100688.88;5009015;28;20026;-76
2022/12/09 08:33:23;;;;;;;81.50;28.67;;;;;;;0.55;100.00;100695.66;5007400;28;20492;-76
2022/12/09 08:35:49;;;;;;;78.35;27.88;;;;;;;0.52;100.00;100693.94;5004638;28;20034;-76
2022/12/09 08:38:14;;;;;;;77.65;27.02;;;;;;;0.55;100.00;100699.06;5006948;28;20037;-76
2022/12/09 08:40:40;;;;;;;81.80;27.52;;;;;;;0.60;100.00;100687.28;4992635;28;20033;-76
2022/12/09 08:43:07;;;;;;;76.22;26.10;;;;;;;0.66;100.00;100691.59;5009070;28;20026;-76
2022/12/09 08:45:39;;;;;;;89.50;26.88;;;;;;;0.67;100.00;100688.22;4988116;28;20026;-76
2022/12/09 08:48:05;;;;;;;76.25;26.55;;;;;;;0.70;100.00;100684.00;5009560;28;20036;-76
2022/12/09 08:50:31;;;;;;;85.32;27.25;;;;;;;0.72;100.00;100676.38;5013467;28;20362;-76
2022/12/09 08:52:56;;;;;;;81.85;25.92;;;;;;;0.72;100.00;100676.38;5013285;28;20037;-76
2022/12/09 08:55:22;;;;;;;75.25;25.88;;;;;;;0.70;100.00;100675.47;5014063;28;20034;-76
2022/12/09 08:57:47;;;;;;;77.70;24.98;;;;;;;0.70;100.00;100680.59;5013569;28;20034;-76
2022/12/09 09:00:13;;;;;;;88.93;26.05;;;;;;;0.75;100.00;100689.19;5013003;28;20116;-74
2022/12/09 09:02:38;;;;;;;97.25;26.50;;;;;;;0.77;100.00;100688.34;5013361;28;20448;-74
2022/12/09 09:05:04;;;;;;;82.50;27.45;;;;;;;0.66;100.00;100691.59;5014916;28;20080;-73
2022/12/09 09:07:30;;;;;;;79.60;27.63;;;;;;;0.60;100.00;100696.63;5010416;28;20116;-73
2022/12/09 09:09:55;;;;;;;69.38;25.52;;;;;;;0.66;100.00;100699.25;5014188;28;20021;-73
2022/12/09 09:12:21;;;;;;;73.45;26.08;;;;;;;0.74;100.00;100705.31;5014904;28;20061;-74
2022/12/09 09:14:46;;;;;;;78.05;26.35;;;;;;;0.82;100.00;100698.59;5008678;28;20034;-73
2022/12/09 09:17:11;;;;;;;82.57;27.38;;;;;;;0.88;100.00;100710.59;5012350;28;20041;-73
2022/12/09 09:19:37;;;;;;;78.10;27.67;;;;;;;0.90;100.00;100706.34;5006711;28;20021;-73
2022/12/09 09:22:02;;;;;;;86.22;28.38;;;;;;;0.82;100.00;100706.25;4996546;28;20112;-74
2022/12/09 09:24:40;;;;;;;80.70;28.17;;;;;;;0.81;100.00;100703.69;5013595;28;20492;-73
2022/12/09 09:27:05;;;;;;;80.82;26.58;;;;;;;0.82;100.00;100707.97;5011164;28;20112;-73
2022/12/09 09:29:31;;;;;;;75.85;25.67;;;;;;;0.84;100.00;100709.69;5015422;28;20696;-73
2022/12/09 09:31:56;;;;;;;86.72;26.50;;;;;;;0.86;100.00;100709.72;4983568;28;20292;-73
2022/12/09 09:34:23;;;;;;;81.00;26.38;;;;;;;0.87;100.00;100717.41;5013387;28;20485;-73
2022/12/09 09:36:49;;;;;;;81.57;26.08;;;;;;;0.85;100.00;100715.66;5012360;28;20064;-74
2022/12/09 09:39:16;;;;;;;82.47;25.77;;;;;;;0.91;100.00;100721.69;5014541;28;20028;-73
2022/12/09 09:41:44;;;;;;;85.88;28.20;;;;;;;0.96;100.00;100721.75;5011402;28;20029;-73
2022/12/09 09:44:16;;;;;;;80.75;26.02;;;;;;;0.93;100.00;100719.16;5012983;28;20113;-73
2022/12/09 09:46:44;;;;;;;77.45;25.55;;;;;;;0.91;100.00;100713.19;5014903;28;20029;-73
2022/12/09 09:49:34;;;;;;;84.05;26.98;;;;;;;0.86;100.00;100712.28;5008998;28;20056;-73
2022/12/09 09:52:05;;;;;;;75.85;25.17;;;;;;;0.87;100.00;100707.19;5010531;28;20029;-73
2022/12/09 09:54:31;;;;;;;77.95;25.92;;;;;;;0.90;100.00;100706.34;5011399;28;20594;-73
2022/12/09 09:57:08;;;;;;;81.78;27.25;;;;;;;0.95;100.00;100707.28;5007905;28;20030;-73
2022/12/09 09:59:58;;;;;;;72.65;25.15;;;;;;;0.97;100.00;100701.34;5006129;28;20481;-73
2022/12/09 10:02:43;;;;;;;71.45;24.55;;;;;;;0.97;100.00;100703.91;5008606;28;20449;-73
2022/12/09 10:05:17;;;;;;;;;;;;;;;1.04;100.00;100707.38;5009258;28;20037;-73
2022/12/09 10:07:50;;;;;;;78.93;25.38;;;;;;;1.04;100.00;100703.16;5011763;28;20253;-73
2022/12/09 10:10:30;;;;;;;76.93;25.70;;;;;;;1.12;100.00;100706.66;5008515;28;20030;-73
2022/12/09 10:13:24;;;;;;;78.18;25.88;;;;;;;1.33;100.00;100698.41;5009334;28;20084;-73
2022/12/09 10:16:04;;;;;;;71.93;23.98;;;;;;;1.51;100.00;100700.28;4955367;28;20039;-73
2022/12/09 10:19:01;;;;;;;75.70;24.85;;;;;;;1.59;100.00;100704.63;5002530;28;20432;-74
2022/12/09 10:21:28;;;;;;;66.65;22.65;;;;;;;1.53;100.00;100707.13;5009162;28;20546;-74
2022/12/09 10:23:54;;;;;;;71.40;23.77;;;;;;;1.47;100.00;100701.97;5009314;28;20060;-73
2022/12/09 10:26:25;;;;;;;72.18;23.55;;;;;;;1.43;100.00;100701.91;5017425;28;20026;-74
2022/12/09 10:29:10;;;;;;;66.47;23.58;;;;;;;1.43;100.00;100707.84;5019727;28;20034;-73
2022/12/09 10:31:35;;;;;;;;;;;;;;;1.51;100.00;100708.81;5001506;28;20121;-73
2022/12/09 10:34:01;;;;;;;66.27;22.17;;;;;;;1.54;100.00;100705.44;5006655;28;20044;-73
2022/12/09 10:36:29;;;;;;;69.00;23.17;;;;;;;1.63;100.00;100704.69;4992107;28;20362;-73
2022/12/09 10:38:54;;;;;;;67.03;22.40;;;;;;;1.67;100.00;100701.31;5010615;28;20963;-73
2022/12/09 10:44:24;;;;;;;69.22;23.60;;;;;;;1.54;100.00;100701.19;5009327;28;20432;-73
2022/12/09 10:47:02;;;;;;;70.65;24.33;;;;;;;1.53;100.00;100691.81;5006739;28;20037;-73
2022/12/09 10:49:29;;;;;;;64.93;22.25;;;;;;;1.55;100.00;100694.38;5008992;28;20021;-73
2022/12/09 10:51:55;;;;;;;69.03;22.85;;;;;;;1.59;100.00;100698.66;5011645;28;20077;-73
2022/12/09 10:54:37;;;;;;;70.07;23.80;;;;;;;1.62;100.00;100698.72;5008075;28;20026;-73
2022/12/09 10:57:15;;;;;;;70.68;24.45;;;;;;;1.61;100.00;100693.59;5009923;28;20456;-74
2022/12/09 10:59:54;;;;;;;71.50;24.42;;;;;;;1.62;100.00;100693.59;5006775;28;20052;-74
2022/12/09 11:02:21;;;;;;;70.90;24.02;;;;;;;1.61;100.00;100694.44;5007149;28;20029;-74
2022/12/09 11:04:47;;;;;;;69.07;23.58;;;;;;;1.63;100.00;100687.66;5010933;28;20044;-73
2022/12/09 11:07:17;;;;;;;67.45;23.88;;;;;;;1.66;100.00;100686.81;5009201;28;20021;-73
2022/12/09 11:09:48;;;;;;;73.50;23.10;;;;;;;1.73;100.00;100686.03;5011862;28;20022;-76
2022/12/09 11:12:25;;;;;;;72.00;23.77;;;;;;;1.82;100.00;100688.69;5005869;28;20129;-77
2022/12/09 11:14:59;;;;;;;76.53;24.48;;;;;;;1.77;100.00;100685.25;5010174;28;20028;-76
2022/12/09 11:17:38;;;;;;;69.05;23.55;;;;;;;1.75;100.00;100687.78;5009952;28;20026;-77